Terminal Aerodrome Forecast
Issued by NWS

Current Version | Previous Version | Text Only | Print | Product List | Glossary Off
Versions: 1 2 3 4 5 6 7 8 9 10 11 12 13 14 15 16 17 18 19 20

244
FTUS41 KRLX 190852 AAA
TAFCKB
TAF AMD
KCKB 190852Z 1909/2006 23005KT P6SM OVC010
     FM192100 26006KT P6SM SCT020=

USA.gov is the U.S. government's official web portal to all federal, state and local government web resources and services.